CheckWX is a tool to help pilots better visualize weather data.  It is not intended as a substitute for an official pre-flight weather briefing.

07:18:56 UTC

DAOO TAF
Es Senia Airport
Oran, Algeria
TAF DAOO 180500Z 1806/1906 VRB02KT 0300 FG BKN010 BECMG 1807/1808 4000 BR BECMG 1810/1812 32010KT 9999 SCT026 BECMG 1814/1816 CAVOK BECMG 1818/1820 VRB02KT

Jun-18@
06:00 UTC

Jun-18 @ 06:00 UTC

Jun-18@
07:00 UTC

Jun-18 @ 07:00 UTC

TAF DAOO 180500Z 1806/1906 VRB02KT 0300 FG BKN010

Expired

Wind
  • Variable at 2 KTS
Conditions
Fog
Cloud Levels
  • Broken at 1,000' AGL

Jun-18@
07:00 UTC

Jun-18 @ 07:00 UTC

Jun-18@
10:00 UTC

Jun-18 @ 10:00 UTC

BECMG 1807/1808 4000 BR

Becoming

Becoming Conditions expected by Tue, Jun 18, 2019 @ 08:00 UTC

Wind
  • Variable at 2 KTS
Conditions
Mist
Cloud Levels
  • Broken at 1,000' AGL

Jun-18@
10:00 UTC

Jun-18 @ 10:00 UTC

Jun-18@
14:00 UTC

Jun-18 @ 14:00 UTC

BECMG 1810/1812 32010KT 9999 SCT026

Becoming

Becoming Conditions expected by Tue, Jun 18, 2019 @ 12:00 UTC

Wind
  • 320° at 10 KTS
Conditions
Mist
Cloud Levels
  • Scattered at 2,600' AGL

Jun-18@
14:00 UTC

Jun-18 @ 14:00 UTC

Jun-18@
18:00 UTC

Jun-18 @ 18:00 UTC

BECMG 1814/1816 CAVOK

Becoming

Becoming Conditions expected by Tue, Jun 18, 2019 @ 16:00 UTC

Wind
  • 320° at 10 KTS
Conditions
No significant weather
Cloud Levels
  • No significant clouds

Jun-18@
18:00 UTC

Jun-18 @ 18:00 UTC

Jun-19@
06:00 UTC

Jun-19 @ 06:00 UTC

BECMG 1818/1820 VRB02KT

Becoming

Becoming Conditions expected by Tue, Jun 18, 2019 @ 20:00 UTC

Wind
  • Variable at 2 KTS
Conditions
No significant weather
Cloud Levels
  • No significant clouds